Time;durP1;ratioP1;P1;durP2;ratioP2;P2;SDS_P1;SDS_P2;PMS_P1;PMS_P2;Temp;Humidity;BMP_temperature;BMP_pressure;BME280_temperature;BME280_humidity;BME280_pressure;Samples;Min_cycle;Max_cycle;Signal;HPM_P1;HPM_P2
2023/08/14 00:01:48;;;;;;;5.30;3.80;;;23.30;99.90;;;;;;5089693;28;20226;-71
2023/08/14 00:04:37;;;;;;;3.90;3.50;;;23.30;99.90;;;;;;5062394;28;20223;-71
2023/08/14 00:07:28;;;;;;;5.55;3.70;;;23.30;99.90;;;;;;5073007;28;20259;-71
2023/08/14 00:10:17;;;;;;;4.63;3.72;;;23.20;99.90;;;;;;5069102;28;20229;-71
2023/08/14 00:13:06;;;;;;;5.63;4.15;;;23.20;99.90;;;;;;5064036;28;20224;-71
2023/08/14 00:15:55;;;;;;;4.55;3.65;;;23.10;99.90;;;;;;5074591;28;20219;-73
2023/08/14 00:18:46;;;;;;;5.40;3.67;;;23.00;99.90;;;;;;5082148;28;20216;-71
2023/08/14 00:21:35;;;;;;;5.60;4.20;;;22.90;99.90;;;;;;5068290;28;20243;-71
2023/08/14 00:24:24;;;;;;;8.23;4.25;;;22.90;99.90;;;;;;5071270;28;20317;-71
2023/08/14 00:27:13;;;;;;;5.63;4.15;;;22.90;99.90;;;;;;5071260;28;20219;-72
2023/08/14 00:30:02;;;;;;;4.68;3.70;;;22.80;99.90;;;;;;5072154;28;20299;-72
2023/08/14 00:32:51;;;;;;;6.47;4.20;;;22.80;99.90;;;;;;5066900;28;20824;-72
2023/08/14 00:35:42;;;;;;;7.63;4.45;;;22.70;99.90;;;;;;5088387;28;20302;-72
2023/08/14 00:38:31;;;;;;;7.72;4.80;;;22.60;99.90;;;;;;5072253;28;20328;-72
2023/08/14 00:41:20;;;;;;;6.80;4.47;;;22.60;99.90;;;;;;5080357;28;20223;-72
2023/08/14 00:44:09;;;;;;;5.93;4.53;;;22.60;99.90;;;;;;5063253;28;20238;-71
2023/08/14 00:46:59;;;;;;;6.93;4.70;;;22.60;99.90;;;;;;5069977;28;20239;-73
2023/08/14 00:49:48;;;;;;;5.80;4.53;;;22.60;99.90;;;;;;5072277;28;20230;-72
2023/08/14 00:52:40;;;;;;;6.55;5.05;;;22.60;99.90;;;;;;5066343;28;20227;-72
2023/08/14 00:55:29;;;;;;;8.80;5.07;;;22.50;99.90;;;;;;5087027;28;20354;-72
2023/08/14 00:58:19;;;;;;;6.90;5.50;;;22.40;99.90;;;;;;5086933;28;20233;-71
2023/08/14 01:01:08;;;;;;;6.05;4.95;;;22.40;99.90;;;;;;5073115;28;20232;-72
2023/08/14 01:03:57;;;;;;;6.53;5.63;;;22.40;99.90;;;;;;5078540;28;20684;-72
2023/08/14 01:06:46;;;;;;;8.50;5.30;;;22.30;99.90;;;;;;5076458;28;20226;-72
2023/08/14 01:09:37;;;;;;;8.32;5.60;;;22.20;99.90;;;;;;5079251;28;20284;-71
2023/08/14 01:12:37;;;;;;;9.23;5.57;;;22.10;99.90;;;;;;5088718;28;20212;-71
2023/08/14 01:15:31;;;;;;;8.90;5.93;;;22.20;99.90;;;;;;5077688;28;20223;-72
2023/08/14 01:18:21;;;;;;;7.95;6.10;;;22.10;99.90;;;;;;5084965;28;20228;-72
2023/08/14 01:21:26;;;;;;;6.82;5.63;;;22.10;99.90;;;;;;5081770;28;20225;-71
2023/08/14 01:24:24;;;;;;;8.43;5.50;;;22.20;99.90;;;;;;5067861;28;20222;-72
2023/08/14 01:27:15;;;;;;;9.02;5.95;;;22.20;99.90;;;;;;5071905;28;20226;-71
2023/08/14 01:30:04;;;;;;;8.20;5.72;;;22.20;99.90;;;;;;5072891;28;20599;-72
2023/08/14 01:32:54;;;;;;;7.88;5.80;;;22.20;99.90;;;;;;5070366;28;20254;-71
2023/08/14 01:35:49;;;;;;;7.40;5.70;;;22.10;99.90;;;;;;5071736;28;20227;-72
2023/08/14 01:38:48;;;;;;;9.52;6.40;;;22.10;99.90;;;;;;5086017;28;20279;-71
2023/08/14 01:41:42;;;;;;;6.93;6.22;;;22.00;99.90;;;;;;5075414;28;20243;-71
2023/08/14 01:44:33;;;;;;;7.75;5.90;;;22.10;99.90;;;;;;5082692;28;20234;-71
2023/08/14 01:47:26;;;;;;;8.32;6.15;;;22.10;99.90;;;;;;5086260;28;20234;-72
2023/08/14 01:50:16;;;;;;;6.90;6.20;;;22.10;99.90;;;;;;5075130;28;20690;-72
2023/08/14 01:53:06;;;;;;;9.45;6.43;;;22.10;99.90;;;;;;5073459;28;20220;-72
2023/08/14 01:55:55;;;;;;;12.70;6.40;;;22.10;99.90;;;;;;5070382;28;20212;-72
2023/08/14 01:58:44;;;;;;;10.95;6.10;;;22.00;99.90;;;;;;5099526;27;20231;-73
2023/08/14 02:01:34;;;;;;;8.15;6.28;;;22.00;99.90;;;;;;5068662;28;20360;-72
2023/08/14 02:04:24;;;;;;;8.90;6.70;;;21.90;99.90;;;;;;5068928;28;20249;-71
2023/08/14 02:07:15;;;;;;;11.50;6.72;;;21.80;99.90;;;;;;5075769;28;20239;-71
2023/08/14 02:10:04;;;;;;;7.53;6.15;;;21.90;99.90;;;;;;5068347;28;20230;-71
2023/08/14 02:12:53;;;;;;;9.57;6.47;;;21.70;99.90;;;;;;5078125;27;20224;-72
2023/08/14 02:15:46;;;;;;;9.98;6.82;;;21.60;99.90;;;;;;5076129;28;20230;-71
2023/08/14 02:18:36;;;;;;;8.07;6.47;;;21.70;99.90;;;;;;5072941;28;20228;-72
2023/08/14 02:21:26;;;;;;;10.07;7.05;;;21.70;99.90;;;;;;5068855;28;20258;-71
2023/08/14 02:24:15;;;;;;;9.50;6.80;;;21.70;99.90;;;;;;5062752;28;20825;-72
2023/08/14 02:27:04;;;;;;;9.05;6.40;;;21.70;99.90;;;;;;5080225;28;20673;-71
2023/08/14 02:29:57;;;;;;;7.80;7.00;;;21.70;99.90;;;;;;5080214;28;20260;-71
2023/08/14 02:32:46;;;;;;;9.88;7.18;;;21.80;99.90;;;;;;5058429;28;20223;-71
2023/08/14 02:35:37;;;;;;;8.40;7.00;;;21.80;99.90;;;;;;5081792;28;20590;-71
2023/08/14 02:38:26;;;;;;;8.65;6.88;;;21.80;99.90;;;;;;5086474;28;20320;-71
2023/08/14 02:41:14;;;;;;;8.73;7.43;;;21.80;99.90;;;;;;5081610;28;20230;-72
2023/08/14 02:44:04;;;;;;;10.02;8.05;;;21.70;99.90;;;;;;5076988;28;20222;-72
2023/08/14 02:46:58;;;;;;;8.35;7.35;;;21.60;99.90;;;;;;5069083;28;20227;-71
2023/08/14 02:49:46;;;;;;;9.13;7.65;;;21.60;99.90;;;;;;5090117;28;20302;-71
2023/08/14 02:52:37;;;;;;;10.57;7.32;;;21.60;99.90;;;;;;5091860;28;20230;-71
2023/08/14 02:55:27;;;;;;;9.88;7.85;;;21.60;99.90;;;;;;5088850;27;20229;-71
2023/08/14 02:58:16;;;;;;;8.20;7.40;;;21.50;99.90;;;;;;5068677;28;20565;-71
2023/08/14 03:01:04;;;;;;;11.65;7.85;;;21.40;99.90;;;;;;5064150;28;20286;-71
2023/08/14 03:03:54;;;;;;;9.27;8.00;;;21.40;99.90;;;;;;5067189;28;20227;-72
2023/08/14 03:06:42;;;;;;;8.50;7.60;;;21.40;99.90;;;;;;5081601;28;20223;-71
2023/08/14 03:09:33;;;;;;;12.35;8.57;;;21.40;99.90;;;;;;5075309;28;20228;-72
2023/08/14 03:12:22;;;;;;;11.00;8.15;;;21.20;99.90;;;;;;5078150;28;20366;-71
2023/08/14 03:15:11;;;;;;;10.27;8.07;;;21.20;99.90;;;;;;5068820;28;20645;-72
2023/08/14 03:18:00;;;;;;;10.80;8.30;;;21.20;99.90;;;;;;5094813;27;20220;-72
2023/08/14 03:20:49;;;;;;;9.88;7.88;;;21.20;99.90;;;;;;5073457;28;20226;-71
2023/08/14 03:23:39;;;;;;;9.57;8.63;;;21.10;99.90;;;;;;5080375;28;20253;-71
2023/08/14 03:26:29;;;;;;;10.55;9.13;;;21.10;99.90;;;;;;5068035;28;20306;-71
2023/08/14 03:29:18;;;;;;;10.60;9.15;;;21.20;99.90;;;;;;5063707;28;20238;-72
2023/08/14 03:32:08;;;;;;;14.93;10.77;;;21.00;99.90;;;;;;5066140;28;20921;-71
2023/08/14 03:34:58;;;;;;;12.05;10.95;;;21.00;99.90;;;;;;5079270;28;20211;-71
2023/08/14 03:37:47;;;;;;;13.23;10.73;;;20.80;99.90;;;;;;5100029;28;20268;-72
2023/08/14 03:40:36;;;;;;;12.45;10.80;;;20.80;99.90;;;;;;5067133;28;20219;-71
2023/08/14 03:43:26;;;;;;;13.18;10.48;;;20.80;99.90;;;;;;5075599;28;20793;-71
2023/08/14 03:46:15;;;;;;;10.55;9.43;;;20.80;99.90;;;;;;5053147;28;20239;-72
2023/08/14 03:49:06;;;;;;;11.85;9.68;;;20.90;99.90;;;;;;5073237;28;20337;-72
2023/08/14 03:51:55;;;;;;;11.00;9.30;;;20.90;99.90;;;;;;5100621;27;20210;-73
2023/08/14 03:54:45;;;;;;;11.90;9.75;;;20.90;99.90;;;;;;5079519;28;20223;-72
2023/08/14 03:57:34;;;;;;;11.52;9.70;;;20.80;99.90;;;;;;5083621;28;20215;-72
2023/08/14 04:00:24;;;;;;;10.63;9.52;;;20.70;99.90;;;;;;5095980;27;20729;-72
2023/08/14 04:03:13;;;;;;;11.30;9.52;;;20.70;99.90;;;;;;5064429;28;20670;-72
2023/08/14 04:06:02;;;;;;;11.55;9.50;;;20.70;99.90;;;;;;5075413;28;20228;-71
2023/08/14 04:08:52;;;;;;;11.63;9.80;;;20.60;99.90;;;;;;5088437;28;20279;-72
2023/08/14 04:11:41;;;;;;;15.75;10.20;;;20.60;99.90;;;;;;5077302;28;20216;-72
2023/08/14 04:14:32;;;;;;;13.45;9.75;;;20.40;99.90;;;;;;5064489;28;20298;-73
2023/08/14 04:17:23;;;;;;;13.07;9.93;;;20.40;99.90;;;;;;5070688;28;20224;-72
2023/08/14 04:20:12;;;;;;;13.07;9.88;;;20.50;99.90;;;;;;5078772;28;20220;-72
2023/08/14 04:23:01;;;;;;;11.73;10.43;;;20.30;99.90;;;;;;5086477;28;20310;-71
2023/08/14 04:25:50;;;;;;;13.70;10.82;;;20.30;99.90;;;;;;5068994;28;20608;-72
2023/08/14 04:28:39;;;;;;;13.68;10.25;;;20.30;99.90;;;;;;5064311;28;20227;-71
2023/08/14 04:31:28;;;;;;;12.20;10.02;;;20.40;99.90;;;;;;5074651;28;20219;-71
2023/08/14 04:34:19;;;;;;;14.65;9.93;;;20.60;99.90;;;;;;5062811;28;20228;-72
2023/08/14 04:37:11;;;;;;;12.93;9.25;;;20.80;99.90;;;;;;5068126;28;20239;-71
2023/08/14 04:40:00;;;;;;;10.77;9.48;;;20.80;99.90;;;;;;5058877;28;20910;-72
2023/08/14 04:42:48;;;;;;;11.88;9.93;;;20.90;99.90;;;;;;5080171;28;20323;-71
2023/08/14 04:45:37;;;;;;;11.50;10.20;;;21.00;99.90;;;;;;5065376;28;20231;-71
2023/08/14 04:48:26;;;;;;;10.82;9.73;;;21.10;99.90;;;;;;5067737;28;20741;-71
2023/08/14 04:51:20;;;;;;;10.88;9.77;;;21.20;99.90;;;;;;5065381;28;20227;-72
2023/08/14 04:54:09;;;;;;;11.68;10.35;;;21.20;99.90;;;;;;5090968;28;20302;-72
2023/08/14 04:56:58;;;;;;;11.85;10.70;;;21.40;99.90;;;;;;5063395;28;20215;-72
2023/08/14 04:59:47;;;;;;;11.07;9.60;;;21.50;99.90;;;;;;5059766;28;20226;-72
2023/08/14 05:02:37;;;;;;;13.35;10.43;;;21.50;99.90;;;;;;5072227;28;20227;-72
2023/08/14 05:05:27;;;;;;;11.00;9.85;;;21.20;99.90;;;;;;5061958;28;20654;-71
2023/08/14 05:08:18;;;;;;;13.93;9.35;;;21.50;99.90;;;;;;5075454;28;20219;-72
2023/08/14 05:11:07;;;;;;;13.18;9.75;;;21.60;99.90;;;;;;5061010;28;20231;-72
2023/08/14 05:13:56;;;;;;;12.32;9.27;;;21.70;99.90;;;;;;5059900;28;20220;-72
2023/08/14 05:16:47;;;;;;;10.63;9.52;;;21.80;99.90;;;;;;5065834;28;20227;-72
2023/08/14 05:19:36;;;;;;;13.55;9.27;;;22.00;99.90;;;;;;5070759;28;20227;-71
2023/08/14 05:22:25;;;;;;;13.30;9.35;;;22.00;99.90;;;;;;5087318;28;20228;-71
2023/08/14 05:25:15;;;;;;;12.23;9.10;;;21.90;99.90;;;;;;5078634;28;20709;-72
2023/08/14 05:28:08;;;;;;;14.75;9.45;;;22.20;99.90;;;;;;5075606;28;20255;-72
2023/08/14 05:30:57;;;;;;;11.75;9.10;;;22.50;99.90;;;;;;5071105;28;20233;-73
2023/08/14 05:33:45;;;;;;;10.25;9.00;;;22.60;99.90;;;;;;5081988;28;20223;-72
2023/08/14 05:36:34;;;;;;;10.40;9.40;;;22.80;99.90;;;;;;5058990;28;20223;-73
2023/08/14 05:39:23;;;;;;;13.48;9.43;;;22.70;99.90;;;;;;5082205;28;20232;-73
2023/08/14 05:42:15;;;;;;;11.73;9.02;;;22.60;99.90;;;;;;5078174;28;20228;-73
2023/08/14 05:45:05;;;;;;;10.20;9.10;;;22.60;99.90;;;;;;5081617;28;20223;-73
2023/08/14 05:47:54;;;;;;;9.38;8.20;;;22.60;99.90;;;;;;5081757;28;21090;-73
2023/08/14 05:50:43;;;;;;;12.35;9.10;;;22.80;99.90;;;;;;5077636;28;20357;-73
2023/08/14 05:53:31;;;;;;;13.07;8.55;;;23.40;99.90;;;;;;5066434;28;20235;-72
2023/08/14 05:56:21;;;;;;;12.68;8.98;;;23.40;99.90;;;;;;5079525;28;20224;-73
2023/08/14 05:59:11;;;;;;;10.70;8.90;;;23.30;99.90;;;;;;5079810;28;20644;-72
2023/08/14 06:02:00;;;;;;;13.73;8.35;;;23.10;99.90;;;;;;5064282;28;20219;-72
2023/08/14 06:04:51;;;;;;;13.35;8.20;;;23.10;99.90;;;;;;5091439;28;20223;-73
2023/08/14 06:07:40;;;;;;;10.15;7.82;;;22.90;99.90;;;;;;5066588;28;20234;-74
2023/08/14 06:10:29;;;;;;;9.65;8.07;;;23.10;99.90;;;;;;5076329;28;20227;-72
2023/08/14 06:13:18;;;;;;;11.48;7.70;;;23.10;99.90;;;;;;5061059;28;20883;-73
2023/08/14 06:16:09;;;;;;;9.75;7.97;;;23.30;99.90;;;;;;5080342;28;20220;-72
2023/08/14 06:18:57;;;;;;;10.75;7.70;;;23.50;99.90;;;;;;5063556;28;20699;-72
2023/08/14 06:21:46;;;;;;;8.85;8.02;;;23.70;99.90;;;;;;5072485;28;20294;-73
2023/08/14 06:24:35;;;;;;;8.35;7.55;;;23.70;99.90;;;;;;5066992;28;20354;-73
2023/08/14 06:27:24;;;;;;;10.75;7.70;;;23.80;99.90;;;;;;5070158;28;20255;-73
2023/08/14 06:30:14;;;;;;;12.63;8.30;;;23.80;99.90;;;;;;5070868;28;20222;-73
2023/08/14 06:33:05;;;;;;;11.35;7.88;;;23.80;99.90;;;;;;5059237;28;20227;-72
2023/08/14 06:35:57;;;;;;;8.52;7.00;;;24.50;99.90;;;;;;5090232;28;20697;-73
2023/08/14 06:38:46;;;;;;;8.65;7.05;;;24.30;99.90;;;;;;5079554;28;20212;-73
2023/08/14 06:41:35;;;;;;;10.38;6.80;;;24.20;99.90;;;;;;5084733;28;20220;-73
2023/08/14 06:44:26;;;;;;;9.15;6.60;;;24.30;99.90;;;;;;5067639;28;20223;-73
2023/08/14 06:47:15;;;;;;;8.40;7.05;;;24.50;99.90;;;;;;5063788;28;20227;-74
2023/08/14 06:50:06;;;;;;;9.82;6.53;;;25.00;99.90;;;;;;5080483;28;20296;-73
2023/08/14 06:52:55;;;;;;;8.93;7.03;;;25.40;99.90;;;;;;5089537;27;20338;-73
2023/08/14 06:55:48;;;;;;;11.75;7.30;;;25.10;99.90;;;;;;5079975;28;20243;-73
2023/08/14 06:58:37;;;;;;;11.05;6.55;;;25.10;99.90;;;;;;5078325;28;20219;-73
2023/08/14 07:01:26;;;;;;;9.90;6.55;;;25.10;99.90;;;;;;5081083;27;20703;-73
2023/08/14 07:04:15;;;;;;;8.73;7.55;;;25.20;99.90;;;;;;5088601;28;20539;-72
2023/08/14 07:07:05;;;;;;;9.93;6.95;;;25.20;99.90;;;;;;5080446;28;20650;-72
2023/08/14 07:09:55;;;;;;;8.98;6.55;;;25.20;99.90;;;;;;5080348;28;20901;-73
2023/08/14 07:12:44;;;;;;;7.50;6.53;;;25.40;99.90;;;;;;5075398;28;20229;-73
2023/08/14 07:15:33;;;;;;;11.63;6.72;;;25.50;99.90;;;;;;5044286;28;20224;-73
2023/08/14 07:18:22;;;;;;;8.55;7.28;;;25.50;99.90;;;;;;5047791;28;20297;-77
2023/08/14 07:21:11;;;;;;;12.13;6.75;;;25.70;99.90;;;;;;5043425;28;20216;-74
2023/08/14 07:24:01;;;;;;;9.30;6.60;;;25.80;99.90;;;;;;5048320;28;20239;-73
2023/08/14 07:26:50;;;;;;;6.93;6.22;;;26.00;99.90;;;;;;5061375;28;20269;-73
2023/08/14 07:29:39;;;;;;;9.25;6.40;;;26.30;99.90;;;;;;5051815;28;20224;-72
2023/08/14 07:32:28;;;;;;;8.82;6.25;;;26.40;99.90;;;;;;5039110;28;20232;-73
2023/08/14 07:35:17;;;;;;;8.10;6.57;;;26.60;99.90;;;;;;5067776;28;20231;-73
2023/08/14 07:38:06;;;;;;;7.10;6.40;;;26.80;99.90;;;;;;5068048;28;20876;-73
2023/08/14 07:40:57;;;;;;;6.63;5.90;;;26.90;99.90;;;;;;5047208;28;20232;-73
2023/08/14 07:43:46;;;;;;;7.93;6.47;;;27.10;99.90;;;;;;5053332;28;20362;-73
2023/08/14 07:46:35;;;;;;;7.40;6.68;;;26.90;99.90;;;;;;5061549;28;20289;-73
2023/08/14 07:49:24;;;;;;;6.07;5.50;;;26.60;99.90;;;;;;5069821;28;20231;-72
2023/08/14 07:52:13;;;;;;;7.93;6.20;;;26.70;99.90;;;;;;5057630;28;20228;-73
2023/08/14 07:55:02;;;;;;;9.00;6.07;;;27.30;99.90;;;;;;5046518;28;20251;-73
2023/08/14 07:57:52;;;;;;;7.32;6.10;;;27.80;99.90;;;;;;5056473;28;20303;-72
2023/08/14 08:00:42;;;;;;;7.75;6.13;;;28.30;99.90;;;;;;5068179;28;20239;-72
2023/08/14 08:03:31;;;;;;;9.70;6.45;;;28.50;99.90;;;;;;5051106;28;20215;-72
2023/08/14 08:06:21;;;;;;;7.93;5.20;;;28.50;99.90;;;;;;5046333;28;20722;-73
2023/08/14 08:09:09;;;;;;;5.30;4.80;;;28.50;99.90;;;;;;5055496;28;20239;-72
2023/08/14 08:11:58;;;;;;;6.85;4.97;;;28.20;99.90;;;;;;5058186;28;20220;-73
2023/08/14 08:14:49;;;;;;;5.20;4.55;;;27.80;99.90;;;;;;5045210;28;20240;-73
2023/08/14 08:17:38;;;;;;;5.57;4.50;;;27.80;99.90;;;;;;5062628;28;20639;-73
2023/08/14 08:20:27;;;;;;;5.75;4.70;;;27.70;99.90;;;;;;5053270;28;20265;-71
2023/08/14 08:23:16;;;;;;;7.22;4.30;;;27.60;99.90;;;;;;5057307;28;20243;-71
2023/08/14 08:26:05;;;;;;;7.35;5.32;;;27.30;99.90;;;;;;5054821;28;20262;-72
2023/08/14 08:28:57;;;;;;;4.50;4.10;;;27.20;99.90;;;;;;5036061;28;20228;-71
2023/08/14 08:31:47;;;;;;;5.82;4.50;;;27.50;99.90;;;;;;5057353;28;20224;-71
2023/08/14 08:34:36;;;;;;;5.20;4.70;;;27.60;99.90;;;;;;5059244;28;20223;-72
2023/08/14 08:37:25;;;;;;;7.47;4.63;;;27.70;99.90;;;;;;5046911;28;20338;-72
2023/08/14 08:40:14;;;;;;;4.95;4.13;;;27.70;99.90;;;;;;5057271;28;20223;-73
2023/08/14 08:43:03;;;;;;;4.80;4.40;;;27.70;99.90;;;;;;5045116;28;20265;-72
2023/08/14 08:45:57;;;;;;;5.38;4.72;;;27.80;99.90;;;;;;5051703;28;20212;-72
2023/08/14 08:48:51;;;;;;;4.80;4.30;;;28.40;99.90;;;;;;5070220;28;20228;-72
2023/08/14 08:51:41;;;;;;;6.07;4.80;;;29.30;99.90;;;;;;5060531;28;20232;-73
2023/08/14 08:54:30;;;;;;;5.18;4.68;;;29.10;99.90;;;;;;5046223;28;20254;-73
2023/08/14 08:57:22;;;;;;;7.72;4.45;;;28.90;99.90;;;;;;5054154;28;20829;-72
2023/08/14 09:00:12;;;;;;;6.43;4.60;;;28.80;99.90;;;;;;5048262;28;20353;-71
2023/08/14 09:03:01;;;;;;;6.32;4.63;;;28.70;99.90;;;;;;5056647;28;20782;-72
2023/08/14 09:05:52;;;;;;;5.00;4.43;;;29.70;99.90;;;;;;5060054;28;20239;-72
2023/08/14 09:08:41;;;;;;;5.25;4.78;;;30.00;99.90;;;;;;5051549;28;20286;-71
2023/08/14 09:11:31;;;;;;;6.22;5.63;;;30.50;99.90;;;;;;5059775;28;20293;-71
2023/08/14 09:14:22;;;;;;;5.82;4.80;;;30.80;99.90;;;;;;5081656;28;20237;-71
2023/08/14 09:17:12;;;;;;;8.07;5.88;;;31.50;99.90;;;;;;5064149;28;20564;-72
2023/08/14 09:20:04;;;;;;;5.85;5.05;;;32.10;99.90;;;;;;5072173;28;20260;-72
2023/08/14 09:23:12;;;;;;;8.75;5.07;;;32.20;99.90;;;;;;5071719;28;20223;-71
2023/08/14 09:26:01;;;;;;;7.45;6.30;;;31.90;99.90;;;;;;5087717;28;20238;-71
2023/08/14 09:28:50;;;;;;;9.27;6.07;;;32.50;99.90;;;;;;5060011;28;20316;-71
2023/08/14 09:31:44;;;;;;;9.35;6.43;;;31.80;99.90;;;;;;5068668;28;20556;-71
2023/08/14 09:34:33;;;;;;;7.20;6.00;;;31.10;99.90;;;;;;5093863;27;20325;-72
2023/08/14 09:37:23;;;;;;;6.38;5.53;;;30.90;99.90;;;;;;5084344;28;20219;-72
2023/08/14 09:40:16;;;;;;;7.03;5.95;;;30.70;99.90;;;;;;5083262;28;20271;-71
2023/08/14 09:43:05;;;;;;;6.13;5.50;;;30.30;99.90;;;;;;5092797;28;20218;-72
2023/08/14 09:45:56;;;;;;;5.95;5.35;;;29.80;99.90;;;;;;5061187;28;20223;-73
2023/08/14 09:48:46;;;;;;;6.38;5.78;;;29.50;99.90;;;;;;5079410;28;20239;-73
2023/08/14 09:51:35;;;;;;;7.10;6.40;;;29.50;99.90;;;;;;5072352;28;20337;-72
2023/08/14 09:54:35;;;;;;;6.88;6.03;;;30.00;99.90;;;;;;5069778;28;20264;-71
2023/08/14 09:57:25;;;;;;;7.38;6.43;;;29.60;99.90;;;;;;5072790;27;21285;-70
2023/08/14 10:00:17;;;;;;;6.80;6.00;;;28.90;99.90;;;;;;5071435;28;20230;-72
2023/08/14 10:03:09;;;;;;;6.35;5.70;;;28.70;99.90;;;;;;5082089;28;20218;-71
2023/08/14 10:05:58;;;;;;;6.88;6.18;;;28.70;99.90;;;;;;5081128;28;20757;-73
2023/08/14 10:08:50;;;;;;;8.98;6.05;;;28.60;99.90;;;;;;5075622;28;20305;-71
2023/08/14 10:11:40;;;;;;;7.15;6.50;;;28.60;99.90;;;;;;5086417;28;20242;-71
2023/08/14 10:14:31;;;;;;;7.60;6.22;;;28.60;99.90;;;;;;5086847;28;20272;-72
2023/08/14 10:17:30;;;;;;;7.85;6.00;;;29.80;99.90;;;;;;5064749;28;20571;-72
2023/08/14 10:20:21;;;;;;;9.20;6.00;;;30.40;99.90;;;;;;5083124;28;20230;-71
2023/08/14 10:23:11;;;;;;;7.40;5.55;;;32.90;99.90;;;;;;5088210;28;20226;-72
2023/08/14 10:26:01;;;;;;;6.60;5.30;;;35.30;99.90;;;;;;5064518;28;20298;-71
2023/08/14 10:28:50;;;;;;;9.35;6.10;;;36.80;99.90;;;;;;5085762;28;20218;-71
2023/08/14 10:31:42;;;;;;;6.28;5.65;;;37.20;99.90;;;;;;5066578;28;20220;-73
2023/08/14 10:34:32;;;;;;;7.45;5.85;;;38.10;99.90;;;;;;5074040;28;20261;-72
2023/08/14 10:37:29;;;;;;;8.18;5.63;;;39.40;99.00;;;;;;5075733;28;20232;-72
2023/08/14 10:40:19;;;;;;;6.40;5.90;;;39.60;96.60;;;;;;5078568;28;20289;-72
2023/08/14 10:43:08;;;;;;;6.75;5.38;;;39.70;95.50;;;;;;5073362;28;20307;-72
2023/08/14 10:45:57;;;;;;;5.85;5.15;;;40.20;94.10;;;;;;5066719;28;20231;-73
2023/08/14 10:48:50;;;;;;;6.05;5.05;;;41.20;92.50;;;;;;5076051;28;20215;-72
2023/08/14 10:51:41;;;;;;;6.00;5.40;;;41.50;88.90;;;;;;5077717;28;20562;-72
2023/08/14 10:54:38;;;;;;;8.63;4.90;;;40.40;91.10;;;;;;5079587;28;20219;-73
2023/08/14 10:57:29;;;;;;;5.32;4.75;;;41.30;91.80;;;;;;5086051;28;20290;-72
2023/08/14 11:00:23;;;;;;;6.78;5.10;;;41.70;88.20;;;;;;5062585;28;20232;-72
2023/08/14 11:03:12;;;;;;;5.32;4.30;;;41.70;89.00;;;;;;5085340;28;20226;-72
2023/08/14 11:06:02;;;;;;;4.47;4.07;;;41.70;80.90;;;;;;5079235;28;20528;-73
2023/08/14 11:08:59;;;;;;;4.38;3.97;;;40.40;82.20;;;;;;5084423;28;20243;-73
2023/08/14 11:11:49;;;;;;;4.38;3.97;;;39.70;89.20;;;;;;5079107;28;20752;-73
2023/08/14 11:14:39;;;;;;;5.35;4.30;;;39.90;88.10;;;;;;5089687;27;20232;-71
2023/08/14 11:17:29;;;;;;;4.82;4.20;;;41.90;79.00;;;;;;5084289;28;20214;-72
2023/08/14 11:20:18;;;;;;;5.55;4.95;;;42.70;76.50;;;;;;5086631;28;20218;-72
2023/08/14 11:23:09;;;;;;;5.15;3.83;;;43.20;78.40;;;;;;5080659;28;20215;-72
2023/08/14 11:25:58;;;;;;;6.18;4.07;;;44.00;78.60;;;;;;5069648;28;20342;-73
2023/08/14 11:28:46;;;;;;;4.78;4.30;;;44.90;75.10;;;;;;5070486;28;20663;-70
2023/08/14 11:31:36;;;;;;;4.60;4.20;;;45.30;69.90;;;;;;5080070;28;20212;-70
2023/08/14 11:34:37;;;;;;;4.30;3.90;;;45.50;72.00;;;;;;5084755;28;20222;-70
2023/08/14 11:37:26;;;;;;;4.95;3.70;;;46.30;69.30;;;;;;5068895;28;20309;-70
2023/08/14 11:40:17;;;;;;;5.28;3.42;;;46.80;69.50;;;;;;5080406;28;20226;-70
2023/08/14 11:43:05;;;;;;;4.35;3.88;;;46.60;67.10;;;;;;5069573;28;20322;-70
2023/08/14 11:45:57;;;;;;;5.93;3.58;;;47.60;65.30;;;;;;5079425;28;20215;-70
2023/08/14 11:48:46;;;;;;;5.72;3.47;;;47.90;60.60;;;;;;5069634;28;20219;-70
2023/08/14 11:51:35;;;;;;;3.83;3.35;;;48.60;62.50;;;;;;5060867;28;20219;-72
2023/08/14 11:54:24;;;;;;;5.32;4.90;;;49.30;58.80;;;;;;5082957;28;20273;-72
2023/08/14 11:57:15;;;;;;;5.60;3.30;;;50.10;58.90;;;;;;5071630;28;20223;-71
2023/08/14 12:00:10;;;;;;;4.57;3.50;;;50.00;56.30;;;;;;5066534;28;20745;-71
2023/08/14 12:03:00;;;;;;;4.57;3.58;;;50.00;57.70;;;;;;5071182;28;20257;-71
2023/08/14 12:06:01;;;;;;;3.55;2.80;;;50.20;55.70;;;;;;5067492;28;20748;-70
2023/08/14 12:08:50;;;;;;;4.57;2.67;;;51.00;55.00;;;;;;5082383;28;20238;-71
2023/08/14 12:11:39;;;;;;;3.83;3.10;;;50.30;55.40;;;;;;5060880;28;20211;-71
2023/08/14 12:14:39;;;;;;;4.57;2.90;;;49.90;56.00;;;;;;5080656;28;20593;-71
2023/08/14 12:17:30;;;;;;;3.33;3.03;;;49.50;54.80;;;;;;5066083;28;20234;-71
2023/08/14 12:20:22;;;;;;;4.63;3.38;;;49.50;54.70;;;;;;5072083;28;20230;-71
2023/08/14 12:23:15;;;;;;;7.72;5.97;;;49.80;53.50;;;;;;5076810;28;20219;-71
2023/08/14 12:26:08;;;;;;;4.40;3.03;;;50.00;53.60;;;;;;5070923;28;20281;-71
2023/08/14 12:28:59;;;;;;;4.90;2.92;;;42.60;57.80;;;;;;5081830;28;20309;-70
2023/08/14 12:31:50;;;;;;;4.30;3.20;;;;;;;;;;5066963;28;20315;-72
2023/08/14 12:34:39;;;;;;;3.30;3.00;;;38.90;65.70;;;;;;5072678;28;20711;-72
2023/08/14 12:37:28;;;;;;;3.90;2.97;;;37.10;71.30;;;;;;5064901;28;20231;-71
2023/08/14 12:40:17;;;;;;;8.35;3.67;;;36.20;75.30;;;;;;5077613;28;20233;-71
2023/08/14 12:43:06;;;;;;;5.65;3.47;;;35.50;81.00;;;;;;5078540;28;20234;-71
2023/08/14 12:45:55;;;;;;;3.45;2.90;;;34.90;84.30;;;;;;5065583;28;20413;-71
2023/08/14 12:48:45;;;;;;;3.75;3.30;;;34.50;82.00;;;;;;5071596;28;20226;-71
2023/08/14 12:51:34;;;;;;;4.20;2.97;;;34.00;84.40;;;;;;5088136;27;20603;-71
2023/08/14 12:54:23;;;;;;;4.25;3.42;;;33.60;85.50;;;;;;5081764;28;20231;-71
2023/08/14 12:57:13;;;;;;;5.38;3.33;;;33.10;89.60;;;;;;5083757;28;20237;-71
2023/08/14 13:00:04;;;;;;;4.80;3.33;;;33.00;90.30;;;;;;5088239;28;20222;-71
2023/08/14 13:02:53;;;;;;;7.38;3.20;;;32.90;90.70;;;;;;5060981;28;20749;-71
2023/08/14 13:05:51;;;;;;;6.07;2.95;;;32.70;91.30;;;;;;5068454;28;20230;-71
2023/08/14 13:08:41;;;;;;;5.25;3.45;;;32.60;91.40;;;;;;5094886;27;20231;-71
2023/08/14 13:11:30;;;;;;;5.05;3.60;;;32.30;93.50;;;;;;5070560;28;20226;-71
2023/08/14 13:14:19;;;;;;;3.35;3.05;;;32.10;92.90;;;;;;5080570;28;20361;-72
2023/08/14 13:17:08;;;;;;;3.50;3.20;;;32.10;92.40;;;;;;5082585;28;20313;-72
2023/08/14 13:19:56;;;;;;;4.18;3.70;;;32.10;93.50;;;;;;5087106;28;20222;-73
2023/08/14 13:22:47;;;;;;;6.50;4.03;;;31.90;94.00;;;;;;5069175;28;20972;-71
2023/08/14 13:25:36;;;;;;;6.25;4.03;;;31.90;94.40;;;;;;5086833;28;20682;-71
2023/08/14 13:28:32;;;;;;;6.22;3.60;;;31.70;95.10;;;;;;5096569;27;20215;-72
2023/08/14 13:31:20;;;;;;;5.68;3.97;;;31.70;94.30;;;;;;5063272;28;20271;-72
2023/08/14 13:34:09;;;;;;;5.38;3.85;;;31.80;94.60;;;;;;5067233;28;20229;-72
2023/08/14 13:36:59;;;;;;;5.20;3.28;;;31.70;94.40;;;;;;5070884;28;20226;-72
2023/08/14 13:39:49;;;;;;;7.53;4.20;;;31.60;94.40;;;;;;5078958;28;20222;-71
2023/08/14 13:42:38;;;;;;;6.75;3.90;;;31.50;94.80;;;;;;5082715;28;21677;-71
2023/08/14 13:45:42;;;;;;;4.18;3.72;;;31.50;94.70;;;;;;5074212;28;20223;-71
2023/08/14 13:48:32;;;;;;;4.40;4.00;;;31.30;94.70;;;;;;5088096;28;20219;-72
2023/08/14 13:51:21;;;;;;;4.70;4.18;;;31.30;95.20;;;;;;5072687;28;20219;-72
2023/08/14 13:54:10;;;;;;;4.97;3.80;;;31.10;95.70;;;;;;5072228;28;20218;-71
2023/08/14 13:57:00;;;;;;;4.95;3.78;;;31.10;94.80;;;;;;5072378;28;20214;-69
2023/08/14 13:59:49;;;;;;;4.60;4.10;;;31.00;95.50;;;;;;5078921;28;20832;-71
2023/08/14 14:02:38;;;;;;;6.22;4.53;;;31.10;95.10;;;;;;5071816;28;20306;-72
2023/08/14 14:05:27;;;;;;;4.20;3.90;;;31.00;95.60;;;;;;5083901;28;20229;-71
2023/08/14 14:08:17;;;;;;;8.25;4.30;;;31.00;96.00;;;;;;5085864;28;20215;-73
2023/08/14 14:11:05;;;;;;;5.68;4.40;;;31.00;96.50;;;;;;5078820;28;20219;-71
2023/08/14 14:13:56;;;;;;;6.32;4.30;;;30.80;96.50;;;;;;5080007;28;20234;-72
2023/08/14 14:16:52;;;;;;;5.65;4.18;;;30.90;97.40;;;;;;5081650;28;20219;-71
2023/08/14 14:19:41;;;;;;;6.68;4.68;;;30.80;97.70;;;;;;5061585;28;20219;-71
2023/08/14 14:22:30;;;;;;;4.85;4.35;;;30.80;96.90;;;;;;5087082;28;20337;-71
2023/08/14 14:25:19;;;;;;;6.13;4.65;;;30.90;97.00;;;;;;5076868;28;20740;-73
2023/08/14 14:28:08;;;;;;;4.63;4.20;;;30.80;97.20;;;;;;5073808;28;20222;-72
2023/08/14 14:30:59;;;;;;;4.38;3.97;;;30.80;96.60;;;;;;5067340;28;20242;-72
2023/08/14 14:33:48;;;;;;;4.78;4.13;;;30.80;96.40;;;;;;5061076;28;20237;-72
2023/08/14 14:36:37;;;;;;;7.70;4.65;;;30.80;96.40;;;;;;5084023;28;20268;-71
2023/08/14 14:39:25;;;;;;;5.13;4.38;;;30.60;96.30;;;;;;5066456;28;20230;-72
2023/08/14 14:42:14;;;;;;;5.47;4.20;;;30.60;96.30;;;;;;5069947;28;20317;-72